EDXW Airport Information

Runway Information
Runway 06 Length 5564 ft width 148 ft
Elevation 27 ft Threshold ft Heading 60
Runway 24 Length 5564 ft Width 148 ft
Elevation 51 ft Threshold ft Heading 240
Runway 14 Length 6955 ft width 148 ft
Elevation 32 ft Threshold ft Heading 144
Runway 32 Length 6955 ft Width 148 ft
Elevation 31 ft Threshold ft Heading 324
Airport Frequencies
Type INFO Name BREMEN INF Frequency 125.1 MHZ
Type RDR Name BREMEN RAD Frequency 136.225 MHZ
Type TWR Name SYLT TWR Frequency 119.75 MHZ
Airport Navaids
Type NDB Name Sylt Frequency 387 KHZ
Type DME Name Westerland Frequency 111500 KHZ
Airport Weather Information & NOTAM
ADDS - METARS form results

(1945 UTC 03 February 2023)
Data provider http://aviationweather.gov/metar/data/
 
METAR text: EDXW 031920Z AUTO 35017KT 9999 // FEW010/// BKN013/// BKN020/// 05/04 Q1022
Conditions at: EDXW (WESTERLAND/SYLT , DE) observed 1920 UTC 03 February 2023
Temperature: 5.0°C (41°F)
Dewpoint: 4.0°C (39°F) [RH = 93%]
Pressure (altimeter): 30.18 inches Hg (1022.0 mb)
Winds: from the N (350 degrees) at 20 MPH (17 knots; 8.7 m/s)
Visibility: 6 or more miles (10+ km)
Ceiling: 1300 feet AGL
Clouds: few clouds at 1000 feet AGL
broken clouds at 1300 feet AGL
broken clouds at 2000 feet AGL
Weather: no significant weather observed at this time

METAR text: EDXW 031850Z AUTO 34023KT 9999 // FEW017/// SCT020/// 06/03 Q1021
Conditions at: EDXW (WESTERLAND/SYLT , DE) observed 1850 UTC 03 February 2023
Temperature: 6.0°C (43°F)
Dewpoint: 3.0°C (37°F) [RH = 81%]
Pressure (altimeter): 30.15 inches Hg (1021.0 mb)
Winds: from the NNW (340 degrees) at 26 MPH (23 knots; 11.8 m/s)
Visibility: 6 or more miles (10+ km)
Ceiling: at least 12,000 feet AGL
Clouds: few clouds at 1700 feet AGL
scattered clouds at 2000 feet AGL
Weather: no significant weather observed at this time

Forecast for: EDXW (WESTERLAND/SYLT , DE)
Text: TAF EDXW 031400Z 0315/0318 31025KT 9999 BKN030
Forecast period: 1500 to 1800 UTC 03 February 2023
Forecast type: FROM: standard forecast or significant change
Winds: from the NW (310 degrees) at 29 MPH (25 knots; 12.9 m/s)
Visibility: 6 or more miles (10+ km)
Ceiling: 3000 feet AGL
Clouds: broken clouds at 3000 feet AGL
Weather: no significant weather forecast for this period
Text: TEMPO 0315/0318 31030G45KT
Forecast period: 1500 to 1800 UTC 03 February 2023
Forecast type: TEMPORARY: The following changes expected for less than half the time period
Winds: from the NW (310 degrees) at 34 MPH (30 knots; 15.4 m/s)
gusting to 52 MPH (45 knots; 23.1 m/s)
Visibility: missing
Ceiling: unknown
Clouds: missing
Weather: no significant weather forecast for this period